Time;durP1;ratioP1;P1;durP2;ratioP2;P2;SDS_P1;SDS_P2;PMS_P1;PMS_P2;Temp;Humidity;BMP_temperature;BMP_pressure;BME280_temperature;BME280_humidity;BME280_pressure;Samples;Min_cycle;Max_cycle;Signal;HPM_P1;HPM_P2
2022/08/09 00:00:15;;;;;;;3.13;2.67;;;;;;;;;;4957088;29;20198;-76
2022/08/09 00:02:45;;;;;;;5.17;2.40;;;;;;;;;;4956923;29;20266;-76
2022/08/09 00:05:17;;;;;;;3.87;2.30;;;;;;;;;;4968188;28;20205;-76
2022/08/09 00:08:09;;;;;;;3.03;2.40;;;;;;;;;;4976044;28;20272;-76
2022/08/09 00:10:38;;;;;;;4.87;2.37;;;;;;;;;;4976143;28;20265;-76
2022/08/09 00:13:08;;;;;;;3.67;2.57;;;;;;;;;;4976135;28;20213;-76
2022/08/09 00:15:44;;;;;;;4.37;2.77;;;;;;;;;;4976217;28;20655;-76
2022/08/09 00:18:29;;;;;;;3.63;2.70;;;;;;;;;;4976298;28;20257;-76
2022/08/09 00:21:03;;;;;;;4.17;2.67;;;;;;;;;;4975828;28;20218;-76
2022/08/09 00:23:31;;;;;;;4.10;3.00;;;;;;;;;;4956902;29;20691;-76
2022/08/09 00:26:20;;;;;;;8.27;3.17;;;;;;;;;;4961732;28;20205;-76
2022/08/09 00:29:01;;;;;;;4.03;3.00;;;;;;;;;;4975838;28;20709;-76
2022/08/09 00:31:30;;;;;;;5.20;3.20;;;;;;;;;;4975804;28;20230;-76
2022/08/09 00:34:19;;;;;;;4.03;2.87;;;;;;;;;;4976096;28;20198;-76
2022/08/09 00:36:47;;;;;;;5.37;2.80;;;;;;;;;;4975510;28;20260;-76
2022/08/09 00:39:16;;;;;;;3.60;2.83;;;;;;;;;;4975476;28;20218;-75
2022/08/09 00:42:05;;;;;;;4.27;3.20;;;;;;;;;;4975777;28;20605;-76
2022/08/09 00:44:56;;;;;;;4.30;2.93;;;;;;;;;;4975264;28;20212;-76
2022/08/09 00:47:24;;;;;;;3.03;2.83;;;;;;;;;;4975593;28;20206;-76
2022/08/09 00:49:53;;;;;;;4.37;3.07;;;;;;;;;;4975742;28;20209;-76
2022/08/09 00:52:25;;;;;;;3.00;2.60;;;;;;;;;;4975542;28;20643;-76
2022/08/09 00:54:58;;;;;;;5.03;3.13;;;;;;;;;;4975300;28;20245;-76
2022/08/09 00:57:28;;;;;;;3.47;2.93;;;;;;;;;;4975626;28;20201;-76
2022/08/09 01:00:06;;;;;;;3.17;2.87;;;;;;;;;;4956014;29;20287;-76
2022/08/09 01:02:52;;;;;;;3.47;3.17;;;;;;;;;;4955723;28;20211;-76
2022/08/09 01:05:24;;;;;;;3.27;2.97;;;;;;;;;;4956105;29;20637;-76
2022/08/09 01:08:16;;;;;;;4.57;3.27;;;;;;;;;;4956271;29;20297;-76
2022/08/09 01:10:56;;;;;;;3.97;3.43;;;;;;;;;;4955651;29;20223;-76
2022/08/09 01:13:27;;;;;;;3.17;2.90;;;;;;;;;;4955963;29;20187;-76
2022/08/09 01:16:11;;;;;;;5.17;3.27;;;;;;;;;;4955915;29;20191;-76
2022/08/09 01:18:42;;;;;;;4.67;3.20;;;;;;;;;;4958742;28;20230;-76
2022/08/09 01:21:38;;;;;;;4.27;3.30;;;;;;;;;;4975056;28;20209;-76
2022/08/09 01:24:21;;;;;;;5.00;3.17;;;;;;;;;;4974840;28;20194;-76
2022/08/09 01:26:55;;;;;;;4.23;3.20;;;;;;;;;;4975166;28;20636;-76
2022/08/09 01:29:28;;;;;;;3.53;3.23;;;;;;;;;;4974720;28;20233;-76
2022/08/09 01:32:19;;;;;;;3.37;3.07;;;;;;;;;;4974956;28;20273;-76
2022/08/09 01:35:00;;;;;;;4.23;3.80;;;;;;;;;;4974984;28;20589;-76
2022/08/09 01:37:46;;;;;;;6.87;3.90;;;;;;;;;;4974936;28;20276;-76
2022/08/09 01:40:36;;;;;;;3.63;3.33;;;;;;;;;;4974815;28;20730;-76
2022/08/09 01:43:06;;;;;;;4.57;3.60;;;;;;;;;;4974760;28;20612;-76
2022/08/09 01:45:36;;;;;;;3.80;2.87;;;;;;;;;;4974850;28;20194;-76
2022/08/09 01:48:14;;;;;;;4.47;3.80;;;;;;;;;;4974793;28;20229;-76
2022/08/09 01:50:43;;;;;;;3.60;3.20;;;;;;;;;;4974592;28;20229;-76
2022/08/09 01:53:16;;;;;;;4.63;3.60;;;;;;;;;;4974543;28;20277;-76
2022/08/09 01:55:48;;;;;;;4.37;3.70;;;;;;;;;;4974693;28;20248;-76
2022/08/09 01:58:19;;;;;;;4.17;3.57;;;;;;;;;;4974637;28;20230;-76
2022/08/09 02:00:52;;;;;;;3.93;3.43;;;;;;;;;;4974654;28;20625;-76
2022/08/09 02:03:21;;;;;;;5.60;4.13;;;;;;;;;;4974706;28;20245;-76
2022/08/09 02:05:52;;;;;;;4.20;3.77;;;;;;;;;;4978480;28;20213;-76
2022/08/09 02:08:35;;;;;;;5.13;4.10;;;;;;;;;;4978934;28;20706;-76
2022/08/09 02:11:25;;;;;;;4.07;3.67;;;;;;;;;;4978120;28;20217;-76
2022/08/09 02:14:13;;;;;;;5.80;3.77;;;;;;;;;;4978416;28;20201;-76
2022/08/09 02:16:53;;;;;;;4.33;3.50;;;;;;;;;;4978501;28;20686;-76
2022/08/09 02:19:43;;;;;;;4.07;3.17;;;;;;;;;;4977960;28;20276;-76
2022/08/09 02:22:15;;;;;;;4.53;3.27;;;;;;;;;;4977995;28;20201;-76
2022/08/09 02:24:48;;;;;;;3.87;3.47;;;;;;;;;;4978574;28;20574;-76
2022/08/09 02:27:19;;;;;;;5.13;3.50;;;;;;;;;;4977969;28;20186;-76
2022/08/09 02:30:11;;;;;;;3.57;3.27;;;;;;;;;;4977867;28;20206;-76
2022/08/09 02:32:45;;;;;;;5.17;2.97;;;;;;;;;;4977718;28;20238;-76
2022/08/09 02:35:18;;;;;;;3.67;3.10;;;;;;;;;;4978296;28;20714;-76
2022/08/09 02:38:07;;;;;;;3.40;3.10;;;;;;;;;;4977848;28;20237;-76
2022/08/09 02:40:36;;;;;;;3.17;2.97;;;;;;;;;;4977960;28;20610;-76
2022/08/09 02:43:05;;;;;;;4.63;3.30;;;;;;;;;;4978016;28;20260;-76
2022/08/09 02:45:38;;;;;;;4.57;3.50;;;;;;;;;;4977936;28;20206;-76
2022/08/09 02:48:09;;;;;;;4.40;3.60;;;;;;;;;;4977492;28;20225;-76
2022/08/09 02:50:59;;;;;;;4.03;3.20;;;;;;;;;;4977317;28;20202;-76
2022/08/09 02:53:31;;;;;;;3.97;3.50;;;;;;;;;;4977963;28;20194;-76
2022/08/09 02:56:02;;;;;;;6.53;3.40;;;;;;;;;;4977521;28;20186;-76
2022/08/09 02:58:32;;;;;;;4.93;3.33;;;;;;;;;;4977406;28;20229;-76
2022/08/09 03:01:07;;;;;;;4.03;3.57;;;;;;;;;;4977879;28;20631;-76
2022/08/09 03:03:43;;;;;;;5.83;3.60;;;;;;;;;;4978001;28;20208;-76
2022/08/09 03:06:31;;;;;;;3.83;3.40;;;;;;;;;;4977358;28;20241;-76
2022/08/09 03:09:00;;;;;;;5.10;3.97;;;;;;;;;;4977414;28;20229;-76
2022/08/09 03:11:29;;;;;;;6.80;4.13;;;;;;;;;;4977516;28;20225;-76
2022/08/09 03:14:18;;;;;;;4.87;4.33;;;;;;;;;;4977042;28;20209;-76
2022/08/09 03:16:55;;;;;;;5.60;4.90;;;;;;;;;;4976025;28;20216;-76
2022/08/09 03:19:25;;;;;;;5.33;4.03;;;;;;;;;;4977257;28;20701;-76
2022/08/09 03:22:15;;;;;;;5.80;4.33;;;;;;;;;;4976945;28;20257;-76
2022/08/09 03:24:53;;;;;;;5.70;4.77;;;;;;;;;;4977459;28;20201;-76
2022/08/09 03:27:42;;;;;;;7.27;4.27;;;;;;;;;;4976904;28;20237;-76
2022/08/09 03:30:13;;;;;;;5.50;4.03;;;;;;;;;;4977188;28;20190;-76
2022/08/09 03:33:03;;;;;;;4.50;4.00;;;;;;;;;;4977061;28;20324;-76
2022/08/09 03:35:46;;;;;;;4.63;3.90;;;;;;;;;;4977130;28;20194;-76
2022/08/09 03:38:35;;;;;;;4.23;3.83;;;;;;;;;;4976556;28;20230;-76
2022/08/09 03:41:09;;;;;;;6.03;4.20;;;;;;;;;;4957647;29;20195;-76
2022/08/09 03:43:42;;;;;;;4.30;3.90;;;;;;;;;;4957466;29;20187;-76
2022/08/09 03:46:31;;;;;;;6.20;4.37;;;;;;;;;;4957273;29;20211;-76
2022/08/09 03:49:03;;;;;;;4.43;3.90;;;;;;;;;;4957111;29;20224;-76
2022/08/09 03:51:38;;;;;;;6.43;4.17;;;;;;;;;;4957142;29;20202;-76
2022/08/09 03:54:26;;;;;;;4.80;4.30;;;;;;;;;;4956956;29;20195;-76
2022/08/09 03:56:57;;;;;;;4.77;4.23;;;;;;;;;;4957111;29;20739;-76
2022/08/09 03:59:26;;;;;;;4.93;4.43;;;;;;;;;;4976519;28;20353;-76
2022/08/09 04:02:15;;;;;;;5.83;4.50;;;;;;;;;;4975841;28;20209;-76
2022/08/09 04:04:59;;;;;;;7.07;4.57;;;;;;;;;;4976321;28;20225;-76
2022/08/09 04:07:34;;;;;;;4.30;3.90;;;;;;;;;;4976071;28;20193;-76
2022/08/09 04:10:21;;;;;;;8.83;4.17;;;;;;;;;;4976258;28;20196;-76
2022/08/09 04:12:58;;;;;;;5.10;4.60;;;;;;;;;;4976340;28;20206;-76
2022/08/09 04:15:29;;;;;;;5.57;4.07;;;;;;;;;;4976291;28;20252;-76
2022/08/09 04:18:18;;;;;;;6.13;4.13;;;;;;;;;;4976186;28;20733;-76
2022/08/09 04:20:50;;;;;;;4.73;4.30;;;;;;;;;;4976012;28;20225;-76
2022/08/09 04:23:19;;;;;;;4.70;4.17;;;;;;;;;;4976256;28;20664;-76
2022/08/09 04:25:52;;;;;;;8.47;3.90;;;;;;;;;;4976314;28;20206;-76
2022/08/09 04:28:21;;;;;;;7.67;4.37;;;;;;;;;;4975627;28;20589;-76
2022/08/09 04:31:04;;;;;;;4.50;4.10;;;;;;;;;;4976175;28;20241;-76
2022/08/09 04:33:36;;;;;;;6.10;4.07;;;;;;;;;;4975975;28;20297;-76
2022/08/09 04:36:22;;;;;;;5.10;4.13;;;;;;;;;;4971822;28;20206;-76
2022/08/09 04:38:51;;;;;;;4.73;4.17;;;;;;;;;;4976061;28;20711;-76
2022/08/09 04:41:20;;;;;;;5.30;4.50;;;;;;;;;;4975442;28;20220;-76
2022/08/09 04:43:51;;;;;;;5.63;5.03;;;;;;;;;;4975749;28;20193;-76
2022/08/09 04:46:34;;;;;;;6.27;5.10;;;;;;;;;;4976139;28;20561;-76
2022/08/09 04:49:23;;;;;;;12.00;4.80;;;;;;;;;;4975262;28;20225;-76
2022/08/09 04:52:12;;;;;;;6.73;5.10;;;;;;;;;;4975475;28;20284;-76
2022/08/09 04:54:55;;;;;;;5.63;4.90;;;;;;;;;;4975436;28;20194;-76
2022/08/09 04:57:24;;;;;;;7.13;5.30;;;;;;;;;;4975516;28;20732;-76
2022/08/09 04:59:54;;;;;;;6.37;5.07;;;;;;;;;;4975256;28;20209;-76
2022/08/09 05:02:23;;;;;;;6.23;5.63;;;;;;;;;;4975046;28;20206;-76
2022/08/09 05:04:54;;;;;;;6.70;5.60;;;;;;;;;;4975180;28;20237;-76
2022/08/09 05:07:25;;;;;;;7.10;5.50;;;;;;;;;;4975121;28;20209;-76
2022/08/09 05:09:59;;;;;;;7.93;5.80;;;;;;;;;;4975375;28;20669;-76
2022/08/09 05:12:29;;;;;;;7.30;5.40;;;;;;;;;;4975077;28;20213;-76
2022/08/09 05:15:00;;;;;;;7.00;5.90;;;;;;;;;;4975045;28;20197;-75
2022/08/09 05:17:30;;;;;;;9.60;6.27;;;;;;;;;;4975152;28;20217;-76
2022/08/09 05:20:20;;;;;;;8.03;6.00;;;;;;;;;;4972012;28;20688;-76
2022/08/09 05:22:58;;;;;;;7.40;6.37;;;;;;;;;;4955275;28;20287;-75
2022/08/09 05:25:46;;;;;;;6.97;6.27;;;;;;;;;;4955732;28;20206;-76
2022/08/09 05:28:18;;;;;;;7.47;6.17;;;;;;;;;;4955722;28;20226;-75
2022/08/09 05:30:47;;;;;;;6.93;6.30;;;;;;;;;;4955823;28;20213;-76
2022/08/09 05:33:18;;;;;;;7.00;6.30;;;;;;;;;;4955402;28;20242;-76
2022/08/09 05:35:53;;;;;;;7.40;6.70;;;;;;;;;;4955325;28;20289;-76
2022/08/09 05:38:25;;;;;;;6.70;6.00;;;;;;;;;;4954875;28;20285;-76
2022/08/09 05:40:55;;;;;;;7.83;6.37;;;;;;;;;;4954636;28;20183;-75
2022/08/09 05:43:24;;;;;;;6.80;6.10;;;;;;;;;;4955630;28;20787;-76
2022/08/09 05:45:59;;;;;;;8.10;6.43;;;;;;;;;;4955307;28;20209;-76
2022/08/09 05:48:28;;;;;;;8.77;6.57;;;;;;;;;;4955442;28;20285;-75
2022/08/09 05:51:00;;;;;;;8.37;6.00;;;;;;;;;;4955439;28;20187;-75
2022/08/09 05:53:50;;;;;;;7.33;6.27;;;;;;;;;;4955108;28;20289;-75
2022/08/09 05:56:25;;;;;;;6.63;6.00;;;;;;;;;;4955090;28;20196;-75
2022/08/09 05:58:56;;;;;;;7.80;6.50;;;;;;;;;;4955349;28;20591;-76
2022/08/09 06:01:26;;;;;;;6.87;6.17;;;;;;;;;;4955305;28;20226;-76
2022/08/09 06:04:09;;;;;;;7.10;6.40;;;;;;;;;;4955254;28;20210;-76
2022/08/09 06:06:39;;;;;;;6.90;6.30;;;;;;;;;;4955218;28;20652;-76
2022/08/09 06:09:19;;;;;;;7.13;6.17;;;;;;;;;;4955206;28;20278;-76
2022/08/09 06:12:07;;;;;;;8.90;6.50;;;;;;;;;;4955173;28;20261;-76
2022/08/09 06:14:36;;;;;;;8.17;6.23;;;;;;;;;;4955260;28;20386;-76
2022/08/09 06:17:05;;;;;;;7.00;6.23;;;;;;;;;;4955288;28;20580;-75
2022/08/09 06:19:37;;;;;;;7.87;6.07;;;;;;;;;;4955206;28;20696;-75
2022/08/09 06:22:06;;;;;;;7.37;5.97;;;;;;;;;;4955175;28;20626;-76
2022/08/09 06:24:44;;;;;;;8.20;6.10;;;;;;;;;;4955139;28;20212;-76
2022/08/09 06:27:13;;;;;;;8.73;5.97;;;;;;;;;;4954971;28;20226;-75
2022/08/09 06:29:43;;;;;;;6.93;6.03;;;;;;;;;;4954807;28;20234;-75
2022/08/09 06:32:26;;;;;;;6.77;5.97;;;;;;;;;;4955266;28;20286;-76
2022/08/09 06:35:14;;;;;;;6.27;5.67;;;;;;;;;;4955095;28;20576;-76
2022/08/09 06:37:43;;;;;;;7.17;5.77;;;;;;;;;;4954692;28;20203;-76
2022/08/09 06:40:33;;;;;;;6.23;5.60;;;;;;;;;;4967523;28;20268;-76
2022/08/09 06:43:02;;;;;;;5.80;5.10;;;;;;;;;;4962346;28;20191;-76
2022/08/09 06:45:34;;;;;;;6.00;4.63;;;;;;;;;;4955210;29;20632;-76
2022/08/09 06:48:23;;;;;;;5.33;4.83;;;;;;;;;;4954708;28;20222;-76
2022/08/09 06:50:57;;;;;;;6.10;4.43;;;;;;;;;;4957218;28;20197;-76
2022/08/09 06:53:26;;;;;;;6.57;5.13;;;;;;;;;;4972239;28;20236;-76
2022/08/09 06:56:06;;;;;;;5.07;4.57;;;;;;;;;;4977161;28;20186;-75
2022/08/09 06:58:37;;;;;;;5.78;4.28;;;;;;;;;;4977588;28;20575;-75
2022/08/09 07:01:25;;;;;;;4.82;4.32;;;;;;;;;;4977391;28;20869;-76
2022/08/09 07:04:14;;;;;;;5.07;4.57;;;;;;;;;;4977663;28;20343;-76
2022/08/09 07:06:47;;;;;;;8.43;4.05;;;;;;;;;;4977893;28;20190;-76
2022/08/09 07:09:20;;;;;;;4.90;4.18;;;;;;;;;;4975212;28;20277;-76
2022/08/09 07:12:12;;;;;;;5.30;4.13;;;;;;;;;;4977075;28;20210;-76
2022/08/09 07:14:46;;;;;;;5.30;3.78;;;;;;;;;;4957801;29;20226;-76
2022/08/09 07:17:20;;;;;;;4.88;3.80;;;;;;;;;;4968581;28;20651;-78
2022/08/09 07:19:49;;;;;;;6.20;4.15;;;;;;;;;;4976366;28;20690;-77
2022/08/09 07:22:23;;;;;;;4.63;3.22;;;;;;;;;;4977256;28;20718;-76
2022/08/09 07:25:02;;;;;;;4.38;3.47;;;;;;;;;;4976887;28;20709;-76
2022/08/09 07:27:38;;;;;;;5.95;3.35;;;;;;;;;;4976959;28;20201;-76
2022/08/09 07:30:20;;;;;;;5.13;3.35;;;;;;;;;;4975113;28;20209;-76
2022/08/09 07:32:53;;;;;;;6.40;3.20;;;;;;;;;;4976518;28;20198;-77
2022/08/09 07:35:22;;;;;;;4.75;3.22;;;;;;;;;;4977421;28;20226;-77
2022/08/09 07:37:53;;;;;;;3.35;3.05;;;;;;;;;;4976560;28;20634;-76
2022/08/09 07:40:27;;;;;;;4.82;3.03;;;;;;;;;;4976772;28;20705;-77
2022/08/09 07:43:16;;;;;;;7.35;3.22;;;;;;;;;;4976949;28;20205;-77
2022/08/09 07:45:45;;;;;;;4.25;2.80;;;;;;;;;;4976660;28;20202;-78
2022/08/09 07:48:15;;;;;;;5.55;2.63;;;;;;;;;;4976757;28;20316;-77
2022/08/09 07:50:57;;;;;;;3.92;2.70;;;;;;;;;;4976401;28;20609;-76
2022/08/09 07:53:46;;;;;;;4.10;2.45;;;;;;;;;;4977175;28;20572;-77
2022/08/09 07:56:34;;;;;;;4.60;2.03;;;;;;;;;;4975422;28;20206;-77
2022/08/09 07:59:07;;;;;;;3.88;1.80;;;;;;;;;;4976235;28;20226;-77
2022/08/09 08:01:49;;;;;;;4.60;2.10;;;;;;;;;;4975729;28;20198;-77
2022/08/09 08:04:20;;;;;;;2.05;1.80;;;;;;;;;;4976772;28;20214;-77
2022/08/09 08:06:59;;;;;;;4.97;1.92;;;;;;;;;;4976561;28;20542;-77
2022/08/09 08:09:48;;;;;;;2.28;1.98;;;;;;;;;;4976047;28;20284;-77
2022/08/09 08:12:36;;;;;;;2.25;1.70;;;;;;;;;;4976537;28;20535;-77
2022/08/09 08:15:14;;;;;;;1.67;1.50;;;;;;;;;;4975988;28;20210;-77
2022/08/09 08:17:50;;;;;;;2.40;1.60;;;;;;;;;;4976453;28;20225;-77
2022/08/09 08:20:23;;;;;;;3.65;1.70;;;;;;;;;;4959595;28;20833;-77
2022/08/09 08:23:00;;;;;;;3.65;1.60;;;;;;;;;;4972539;28;20299;-77
2022/08/09 08:25:43;;;;;;;4.88;1.67;;;;;;;;;;4976083;28;20212;-77
2022/08/09 08:28:14;;;;;;;3.50;1.42;;;;;;;;;;4976126;28;20658;-77
2022/08/09 08:30:47;;;;;;;2.85;1.60;;;;;;;;;;4976089;28;20636;-77
2022/08/09 08:33:17;;;;;;;2.35;1.70;;;;;;;;;;4976028;28;20218;-77
2022/08/09 08:35:51;;;;;;;2.78;1.38;;;;;;;;;;4976216;28;20245;-77
2022/08/09 08:38:30;;;;;;;3.47;1.40;;;;;;;;;;4975598;28;20229;-77
2022/08/09 08:40:59;;;;;;;2.28;1.50;;;;;;;;;;4975770;28;20264;-77
2022/08/09 08:43:32;;;;;;;2.17;1.60;;;;;;;;;;4975734;28;20194;-76
2022/08/09 08:46:06;;;;;;;4.07;1.63;;;;;;;;;;4975621;28;20221;-77
2022/08/09 08:48:54;;;;;;;1.48;1.33;;;;;;;;;;4956228;29;20222;-77
2022/08/09 08:51:26;;;;;;;5.25;1.83;;;;;;;;;;4956660;28;20563;-76
2022/08/09 08:54:10;;;;;;;3.03;1.75;;;;;;;;;;4975319;28;20190;-76
2022/08/09 08:56:57;;;;;;;2.63;1.55;;;;;;;;;;4975584;28;20317;-76
2022/08/09 08:59:26;;;;;;;2.45;1.50;;;;;;;;;;4975722;28;20225;-77
2022/08/09 09:02:20;;;;;;;2.58;1.60;;;;;;;;;;4974892;28;20208;-76
2022/08/09 09:04:59;;;;;;;1.92;1.42;;;;;;;;;;4975694;28;20655;-76
2022/08/09 09:07:38;;;;;;;1.48;1.33;;;;;;;;;;4975714;28;20190;-76
2022/08/09 09:10:12;;;;;;;3.67;1.90;;;;;;;;;;4965749;28;20298;-76
2022/08/09 09:12:41;;;;;;;2.95;1.48;;;;;;;;;;4984002;28;20240;-76
2022/08/09 09:15:10;;;;;;;2.38;1.88;;;;;;;;;;4994471;28;20252;-76
2022/08/09 09:17:40;;;;;;;2.97;1.63;;;;;;;;;;4994521;28;20213;-76
2022/08/09 09:20:20;;;;;;;3.45;1.90;;;;;;;;;;4982122;28;20228;-77
2022/08/09 09:22:55;;;;;;;2.38;1.75;;;;;;;;;;4975235;28;20264;-76
2022/08/09 09:25:33;;;;;;;3.40;1.52;;;;;;;;;;4975080;28;20245;-76
2022/08/09 09:28:21;;;;;;;3.20;1.73;;;;;;;;;;4974403;28;20756;-77
2022/08/09 09:31:13;;;;;;;4.75;2.10;;;;;;;;;;4974578;28;20213;-77
2022/08/09 09:34:13;;;;;;;2.88;2.00;;;;;;;;;;4956358;28;20269;-76
2022/08/09 09:36:46;;;;;;;3.95;2.03;;;;;;;;;;4974691;28;20214;-76
2022/08/09 09:39:22;;;;;;;2.70;1.90;;;;;;;;;;4955403;29;20234;-76
2022/08/09 09:42:22;;;;;;;3.63;1.90;;;;;;;;;;4956028;29;20228;-77
2022/08/09 09:44:57;;;;;;;3.30;1.98;;;;;;;;;;4962802;28;20197;-76
2022/08/09 09:47:26;;;;;;;4.22;2.20;;;;;;;;;;4974782;28;20651;-76
2022/08/09 09:49:58;;;;;;;1.98;1.70;;;;;;;;;;4974682;28;20201;-77
2022/08/09 09:52:49;;;;;;;3.38;2.25;;;;;;;;;;4974850;28;20193;-76
2022/08/09 09:55:22;;;;;;;2.10;1.85;;;;;;;;;;4974467;28;20209;-77
2022/08/09 09:58:00;;;;;;;3.20;2.10;;;;;;;;;;4974493;28;20229;-77
2022/08/09 10:00:47;;;;;;;2.65;1.60;;;;;;;;;;4974621;28;20192;-76
2022/08/09 10:03:38;;;;;;;1.60;1.50;;;;;;;;;;4970540;28;20197;-76
2022/08/09 10:06:11;;;;;;;1.90;1.48;;;;;;;;;;4973179;28;20307;-76
2022/08/09 10:08:40;;;;;;;2.40;1.55;;;;;;;;;;4972714;28;20230;-76
2022/08/09 10:11:23;;;;;;;5.07;1.65;;;;;;;;;;4973997;28;20190;-77
2022/08/09 10:14:21;;;;;;;2.92;1.60;;;;;;;;;;4974935;28;20730;-76
2022/08/09 10:16:59;;;;;;;2.85;1.60;;;;;;;;;;4991386;28;20209;-77
2022/08/09 10:19:47;;;;;;;4.05;1.60;;;;;;;;;;4976327;28;20261;-77
2022/08/09 10:22:31;;;;;;;3.13;1.50;;;;;;;;;;4974740;28;20643;-76
2022/08/09 10:25:02;;;;;;;1.65;1.35;;;;;;;;;;4975846;28;20627;-76
2022/08/09 10:27:39;;;;;;;3.03;1.73;;;;;;;;;;4972653;28;20224;-76
2022/08/09 10:30:27;;;;;;;2.55;1.67;;;;;;;;;;4965064;28;20193;-77
2022/08/09 10:33:17;;;;;;;2.67;1.60;;;;;;;;;;4978511;28;20212;-77
2022/08/09 10:36:06;;;;;;;2.15;1.40;;;;;;;;;;4979730;28;20221;-77
2022/08/09 10:38:41;;;;;;;2.58;1.70;;;;;;;;;;4978504;28;20231;-77
2022/08/09 10:41:25;;;;;;;3.35;1.70;;;;;;;;;;4977415;28;20245;-77
2022/08/09 10:43:55;;;;;;;2.65;1.65;;;;;;;;;;4978333;28;20201;-76
2022/08/09 10:46:48;;;;;;;3.58;1.70;;;;;;;;;;4977310;28;20198;-76
2022/08/09 10:49:36;;;;;;;1.63;1.52;;;;;;;;;;4977933;28;20229;-77
2022/08/09 10:52:29;;;;;;;1.85;1.60;;;;;;;;;;4972104;28;20202;-76
2022/08/09 10:55:19;;;;;;;2.90;1.73;;;;;;;;;;4966474;28;20210;-76
2022/08/09 10:57:49;;;;;;;1.90;1.70;;;;;;;;;;4974957;28;20226;-77
2022/08/09 11:00:33;;;;;;;3.33;1.60;;;;;;;;;;4977057;28;20292;-77
2022/08/09 11:03:02;;;;;;;2.03;1.70;;;;;;;;;;4962312;28;20206;-77
2022/08/09 11:06:10;;;;;;;2.15;1.85;;;;;;;;;;4977624;28;20616;-77
2022/08/09 11:08:42;;;;;;;2.00;1.80;;;;;;;;;;4978185;28;20225;-77
2022/08/09 11:11:16;;;;;;;4.03;2.10;;;;;;;;;;4977554;28;20202;-76
2022/08/09 11:13:46;;;;;;;2.97;1.90;;;;;;;;;;4977706;28;20587;-76
2022/08/09 11:16:37;;;;;;;3.00;1.80;;;;;;;;;;4975863;28;20216;-76
2022/08/09 11:19:07;;;;;;;4.15;2.20;;;;;;;;;;4985832;28;20225;-76
2022/08/09 11:21:51;;;;;;;2.28;2.08;;;;;;;;;;4966245;28;20229;-76
2022/08/09 11:24:55;;;;;;;2.15;1.70;;;;;;;;;;4977082;28;20198;-76
2022/08/09 11:27:33;;;;;;;1.95;1.73;;;;;;;;;;4957744;29;20206;-77
2022/08/09 11:30:31;;;;;;;2.50;1.70;;;;;;;;;;4969219;28;20206;-77
2022/08/09 11:33:04;;;;;;;3.53;1.67;;;;;;;;;;4978256;28;20201;-77
2022/08/09 11:35:37;;;;;;;3.72;1.70;;;;;;;;;;4976676;28;20209;-77
2022/08/09 11:38:18;;;;;;;3.15;2.00;;;;;;;;;;4976631;28;20233;-77
2022/08/09 11:40:50;;;;;;;2.03;1.80;;;;;;;;;;4977037;28;20564;-77
2022/08/09 11:43:37;;;;;;;2.55;1.80;;;;;;;;;;4977479;28;20202;-77
2022/08/09 11:46:07;;;;;;;3.55;1.67;;;;;;;;;;4976807;28;20205;-77
2022/08/09 11:48:48;;;;;;;4.30;1.55;;;;;;;;;;4977057;28;20312;-77
2022/08/09 11:51:16;;;;;;;2.88;1.75;;;;;;;;;;4976502;28;20210;-77
2022/08/09 11:54:15;;;;;;;3.20;1.90;;;;;;;;;;4977385;28;20237;-77
2022/08/09 11:57:19;;;;;;;4.85;1.80;;;;;;;;;;4977215;28;20210;-76
2022/08/09 12:00:11;;;;;;;3.90;1.70;;;;;;;;;;4976114;28;20225;-76
2022/08/09 12:02:46;;;;;;;2.05;1.52;;;;;;;;;;4976818;28;20209;-77
2022/08/09 12:05:19;;;;;;;3.80;1.75;;;;;;;;;;4976259;28;20195;-77
2022/08/09 12:07:50;;;;;;;3.15;1.73;;;;;;;;;;4976485;28;20702;-77
2022/08/09 12:10:23;;;;;;;4.55;1.73;;;;;;;;;;4976175;28;20236;-77
2022/08/09 12:13:07;;;;;;;2.00;1.80;;;;;;;;;;4976900;28;20201;-77
2022/08/09 12:16:00;;;;;;;2.58;1.70;;;;;;;;;;4975981;28;20206;-76
2022/08/09 12:18:32;;;;;;;3.58;1.77;;;;;;;;;;4976913;28;20225;-77
2022/08/09 12:21:03;;;;;;;2.35;1.88;;;;;;;;;;4976346;28;20233;-76
2022/08/09 12:23:52;;;;;;;2.25;1.80;;;;;;;;;;4972378;28;20211;-78
2022/08/09 12:26:40;;;;;;;1.67;1.58;;;;;;;;;;4971037;28;20697;-77
2022/08/09 12:29:15;;;;;;;3.40;1.85;;;;;;;;;;4974350;28;20229;-77
2022/08/09 12:32:06;;;;;;;2.88;1.50;;;;;;;;;;4976024;28;20214;-77
2022/08/09 12:34:37;;;;;;;1.75;1.65;;;;;;;;;;4975807;28;20613;-76
2022/08/09 12:37:08;;;;;;;2.75;1.95;;;;;;;;;;4974577;28;20217;-77
2022/08/09 12:40:01;;;;;;;1.98;1.73;;;;;;;;;;4972043;28;20205;-79
2022/08/09 12:42:33;;;;;;;2.42;1.63;;;;;;;;;;4976317;28;20663;-79
2022/08/09 12:45:02;;;;;;;3.88;1.70;;;;;;;;;;4976143;28;20686;-79
2022/08/09 12:47:52;;;;;;;2.63;1.70;;;;;;;;;;4975569;28;20225;-79
2022/08/09 12:50:21;;;;;;;2.30;1.70;;;;;;;;;;4973537;28;20210;-79
2022/08/09 12:52:51;;;;;;;2.35;1.75;;;;;;;;;;4955918;29;20238;-79
2022/08/09 12:55:39;;;;;;;5.90;1.67;;;;;;;;;;4955036;28;20202;-78
2022/08/09 12:58:28;;;;;;;2.38;1.60;;;;;;;;;;4955279;29;20245;-79
2022/08/09 13:00:57;;;;;;;2.35;1.50;;;;;;;;;;4955097;29;20206;-79
2022/08/09 13:03:30;;;;;;;1.52;1.42;;;;;;;;;;4955168;29;20593;-79
2022/08/09 13:06:26;;;;;;;1.65;1.50;;;;;;;;;;4954247;29;20262;-78
2022/08/09 13:09:05;;;;;;;3.60;1.50;;;;;;;;;;4954678;28;20227;-77
2022/08/09 13:11:35;;;;;;;1.73;1.63;;;;;;;;;;4967411;28;20253;-77
2022/08/09 13:14:10;;;;;;;2.58;1.60;;;;;;;;;;4973596;28;20193;-78
2022/08/09 13:17:00;;;;;;;3.15;1.63;;;;;;;;;;4973092;28;20233;-78
2022/08/09 13:19:30;;;;;;;3.10;1.60;;;;;;;;;;4974775;28;20718;-78
2022/08/09 13:22:20;;;;;;;2.55;1.58;;;;;;;;;;4974002;28;20256;-79
2022/08/09 13:25:09;;;;;;;2.88;1.42;;;;;;;;;;4974430;28;20202;-79
2022/08/09 13:27:41;;;;;;;3.17;1.60;;;;;;;;;;4974237;28;20209;-78
2022/08/09 13:30:25;;;;;;;2.70;1.90;;;;;;;;;;4974250;28;20209;-78
2022/08/09 13:33:29;;;;;;;1.63;1.52;;;;;;;;;;4974220;28;20217;-78
2022/08/09 13:36:18;;;;;;;3.63;1.70;;;;;;;;;;4974013;28;20292;-79
2022/08/09 13:39:11;;;;;;;1.50;1.40;;;;;;;;;;4973436;28;20221;-78
2022/08/09 13:42:01;;;;;;;1.88;1.50;;;;;;;;;;4973168;28;20217;-77
2022/08/09 13:44:30;;;;;;;1.42;1.30;;;;;;;;;;4973689;28;20205;-79
2022/08/09 13:46:59;;;;;;;2.67;1.42;;;;;;;;;;4973835;28;20209;-78
2022/08/09 13:49:48;;;;;;;2.85;1.65;;;;;;;;;;4973707;28;20750;-77
2022/08/09 13:52:28;;;;;;;1.63;1.42;;;;;;;;;;4973389;28;20190;-78
2022/08/09 13:54:59;;;;;;;1.80;1.45;;;;;;;;;;4972384;28;20205;-77
2022/08/09 13:57:33;;;;;;;2.13;1.55;;;;;;;;;;4972907;28;20593;-77
2022/08/09 14:00:09;;;;;;;1.83;1.50;;;;;;;;;;4972736;28;20189;-78
2022/08/09 14:02:40;;;;;;;2.58;1.30;;;;;;;;;;4973079;28;20233;-78
2022/08/09 14:05:29;;;;;;;3.65;1.40;;;;;;;;;;4973549;28;20245;-79
2022/08/09 14:08:21;;;;;;;1.88;1.40;;;;;;;;;;4974314;28;20245;-79
2022/08/09 14:10:51;;;;;;;1.92;1.42;;;;;;;;;;4974480;28;20277;-79
2022/08/09 14:13:24;;;;;;;2.90;1.42;;;;;;;;;;4974337;28;20200;-80
2022/08/09 14:16:14;;;;;;;1.67;1.30;;;;;;;;;;4974840;28;20202;-79
2022/08/09 14:18:44;;;;;;;1.80;1.42;;;;;;;;;;4971291;28;20292;-78
2022/08/09 14:21:18;;;;;;;2.75;1.50;;;;;;;;;;4992464;28;20224;-79
2022/08/09 14:23:48;;;;;;;1.25;1.17;;;;;;;;;;4982628;28;20241;-78
2022/08/09 14:26:26;;;;;;;6.43;1.73;;;;;;;;;;4971173;28;20197;-79
2022/08/09 14:29:03;;;;;;;2.67;1.38;;;;;;;;;;4960434;28;20235;-79
2022/08/09 14:31:52;;;;;;;2.17;1.30;;;;;;;;;;4955664;28;20210;-79
2022/08/09 14:34:22;;;;;;;3.00;1.40;;;;;;;;;;4955542;29;20574;-79
2022/08/09 14:37:00;;;;;;;2.13;1.35;;;;;;;;;;4956099;28;20301;-80
2022/08/09 14:39:34;;;;;;;1.85;1.50;;;;;;;;;;4956863;29;20787;-80
2022/08/09 14:42:16;;;;;;;2.33;1.40;;;;;;;;;;4956312;29;20246;-79
2022/08/09 14:45:00;;;;;;;1.08;0.98;;;;;;;;;;4955742;29;20640;-79
2022/08/09 14:47:48;;;;;;;2.53;1.48;;;;;;;;;;4954939;28;20269;-78
2022/08/09 14:50:27;;;;;;;1.58;1.40;;;;;;;;;;4959172;28;20190;-78
2022/08/09 14:52:55;;;;;;;1.70;1.40;;;;;;;;;;4974207;28;20202;-78
2022/08/09 14:55:24;;;;;;;2.30;1.45;;;;;;;;;;4975539;28;20293;-77
2022/08/09 14:58:02;;;;;;;1.40;1.17;;;;;;;;;;4974509;28;20690;-79
2022/08/09 15:00:33;;;;;;;1.52;1.05;;;;;;;;;;4975533;28;20197;-79
2022/08/09 15:03:04;;;;;;;2.80;1.30;;;;;;;;;;4973650;28;20190;-79
2022/08/09 15:05:33;;;;;;;1.20;1.10;;;;;;;;;;4973603;28;20538;-79
2022/08/09 15:08:04;;;;;;;1.67;1.40;;;;;;;;;;4971047;28;20308;-79
2022/08/09 15:10:37;;;;;;;2.17;1.20;;;;;;;;;;4955142;28;20274;-77
2022/08/09 15:13:09;;;;;;;2.03;1.27;;;;;;;;;;4971602;28;20224;-79
2022/08/09 15:15:44;;;;;;;1.70;1.30;;;;;;;;;;4978471;28;20235;-78
2022/08/09 15:18:12;;;;;;;1.60;1.20;;;;;;;;;;4976929;28;20642;-78
2022/08/09 15:20:42;;;;;;;1.35;1.05;;;;;;;;;;4978015;28;20253;-79
2022/08/09 15:23:30;;;;;;;1.27;1.00;;;;;;;;;;4977443;28;20670;-79
2022/08/09 15:26:24;;;;;;;4.32;1.30;;;;;;;;;;4977848;28;20206;-78
2022/08/09 15:29:01;;;;;;;1.90;1.13;;;;;;;;;;4976005;28;20845;-79
2022/08/09 15:31:32;;;;;;;1.45;1.10;;;;;;;;;;4977983;28;20524;-78
2022/08/09 15:34:10;;;;;;;3.80;1.20;;;;;;;;;;4977000;28;20277;-78
2022/08/09 15:36:59;;;;;;;1.38;1.08;;;;;;;;;;4976376;28;20210;-79
2022/08/09 15:39:32;;;;;;;2.30;1.15;;;;;;;;;;4975850;28;20240;-78
2022/08/09 15:42:20;;;;;;;1.63;1.05;;;;;;;;;;4976806;28;20268;-79
2022/08/09 15:44:51;;;;;;;2.60;1.27;;;;;;;;;;4977661;28;20202;-74
2022/08/09 15:47:21;;;;;;;2.08;1.20;;;;;;;;;;4973420;28;20670;-75